sensor_id;sensor_type;location;lat;lon;timestamp;P1;durP1;ratioP1;P2;durP2;ratioP2
20954;SDS011;10636;19.390;-99.256;2024-03-06T00:01:53;6.07;;;4.30;;
20954;SDS011;10636;19.390;-99.256;2024-03-06T00:04:22;6.43;;;4.97;;
20954;SDS011;10636;19.390;-99.256;2024-03-06T00:06:50;5.22;;;4.70;;
20954;SDS011;10636;19.390;-99.256;2024-03-06T00:09:22;7.85;;;4.65;;
20954;SDS011;10636;19.390;-99.256;2024-03-06T00:11:52;8.43;;;4.60;;
20954;SDS011;10636;19.390;-99.256;2024-03-06T00:14:21;6.65;;;4.88;;
20954;SDS011;10636;19.390;-99.256;2024-03-06T00:16:50;5.47;;;4.97;;
20954;SDS011;10636;19.390;-99.256;2024-03-06T00:19:18;6.30;;;5.13;;
20954;SDS011;10636;19.390;-99.256;2024-03-06T00:21:47;5.97;;;4.97;;
20954;SDS011;10636;19.390;-99.256;2024-03-06T00:24:15;7.25;;;5.13;;
20954;SDS011;10636;19.390;-99.256;2024-03-06T00:26:46;6.32;;;5.63;;
20954;SDS011;10636;19.390;-99.256;2024-03-06T00:29:14;7.88;;;5.88;;
20954;SDS011;10636;19.390;-99.256;2024-03-06T00:31:43;6.90;;;5.50;;
20954;SDS011;10636;19.390;-99.256;2024-03-06T00:34:12;7.07;;;6.00;;
20954;SDS011;10636;19.390;-99.256;2024-03-06T00:36:40;9.25;;;6.00;;
20954;SDS011;10636;19.390;-99.256;2024-03-06T00:39:10;9.63;;;6.25;;
20954;SDS011;10636;19.390;-99.256;2024-03-06T00:41:40;6.60;;;5.95;;
20954;SDS011;10636;19.390;-99.256;2024-03-06T00:44:10;7.82;;;6.90;;
20954;SDS011;10636;19.390;-99.256;2024-03-06T00:46:38;7.90;;;6.60;;
20954;SDS011;10636;19.390;-99.256;2024-03-06T00:49:07;9.20;;;6.95;;
20954;SDS011;10636;19.390;-99.256;2024-03-06T00:51:35;7.90;;;7.15;;
20954;SDS011;10636;19.390;-99.256;2024-03-06T00:54:04;9.38;;;7.18;;
20954;SDS011;10636;19.390;-99.256;2024-03-06T00:56:33;8.00;;;7.28;;
20954;SDS011;10636;19.390;-99.256;2024-03-06T00:59:05;10.43;;;7.90;;
20954;SDS011;10636;19.390;-99.256;2024-03-06T01:01:35;8.73;;;7.78;;
20954;SDS011;10636;19.390;-99.256;2024-03-06T01:04:04;8.27;;;7.40;;
20954;SDS011;10636;19.390;-99.256;2024-03-06T01:06:32;10.63;;;7.15;;
20954;SDS011;10636;19.390;-99.256;2024-03-06T01:09:01;8.98;;;7.65;;
20954;SDS011;10636;19.390;-99.256;2024-03-06T01:11:29;10.00;;;7.15;;
20954;SDS011;10636;19.390;-99.256;2024-03-06T01:13:58;9.45;;;7.93;;
20954;SDS011;10636;19.390;-99.256;2024-03-06T01:16:26;9.80;;;7.25;;
20954;SDS011;10636;19.390;-99.256;2024-03-06T01:18:56;8.15;;;7.07;;
20954;SDS011;10636;19.390;-99.256;2024-03-06T01:21:25;11.02;;;7.72;;
20954;SDS011;10636;19.390;-99.256;2024-03-06T01:23:54;10.65;;;7.80;;
20954;SDS011;10636;19.390;-99.256;2024-03-06T01:26:23;11.30;;;7.55;;
20954;SDS011;10636;19.390;-99.256;2024-03-06T01:28:51;9.07;;;7.60;;
20954;SDS011;10636;19.390;-99.256;2024-03-06T01:31:20;12.10;;;7.95;;
20954;SDS011;10636;19.390;-99.256;2024-03-06T01:33:48;9.10;;;7.88;;
20954;SDS011;10636;19.390;-99.256;2024-03-06T01:36:21;8.75;;;7.85;;
20954;SDS011;10636;19.390;-99.256;2024-03-06T01:38:50;9.27;;;7.90;;
20954;SDS011;10636;19.390;-99.256;2024-03-06T01:41:21;11.10;;;7.85;;
20954;SDS011;10636;19.390;-99.256;2024-03-06T01:43:50;12.40;;;8.02;;
20954;SDS011;10636;19.390;-99.256;2024-03-06T01:46:19;11.45;;;8.48;;
20954;SDS011;10636;19.390;-99.256;2024-03-06T01:48:47;10.02;;;8.02;;
20954;SDS011;10636;19.390;-99.256;2024-03-06T01:51:15;9.13;;;7.72;;
20954;SDS011;10636;19.390;-99.256;2024-03-06T01:53:44;9.88;;;7.35;;
20954;SDS011;10636;19.390;-99.256;2024-03-06T01:56:13;9.23;;;7.63;;
20954;SDS011;10636;19.390;-99.256;2024-03-06T01:58:43;8.55;;;7.78;;
20954;SDS011;10636;19.390;-99.256;2024-03-06T02:01:14;9.85;;;7.70;;
20954;SDS011;10636;19.390;-99.256;2024-03-06T02:03:44;9.27;;;7.38;;
20954;SDS011;10636;19.390;-99.256;2024-03-06T02:06:13;9.88;;;7.20;;
20954;SDS011;10636;19.390;-99.256;2024-03-06T02:08:46;9.35;;;7.45;;
20954;SDS011;10636;19.390;-99.256;2024-03-06T02:11:15;9.88;;;7.10;;
20954;SDS011;10636;19.390;-99.256;2024-03-06T02:13:44;8.15;;;7.35;;
20954;SDS011;10636;19.390;-99.256;2024-03-06T02:16:12;9.65;;;7.50;;
20954;SDS011;10636;19.390;-99.256;2024-03-06T02:18:51;8.43;;;7.63;;
20954;SDS011;10636;19.390;-99.256;2024-03-06T02:21:21;10.48;;;7.63;;
20954;SDS011;10636;19.390;-99.256;2024-03-06T02:23:50;11.38;;;8.07;;
20954;SDS011;10636;19.390;-99.256;2024-03-06T02:26:20;9.77;;;7.95;;
20954;SDS011;10636;19.390;-99.256;2024-03-06T02:28:49;8.48;;;7.38;;
20954;SDS011;10636;19.390;-99.256;2024-03-06T02:31:18;10.07;;;7.72;;
20954;SDS011;10636;19.390;-99.256;2024-03-06T02:33:50;9.52;;;7.95;;
20954;SDS011;10636;19.390;-99.256;2024-03-06T02:36:19;10.75;;;8.13;;
20954;SDS011;10636;19.390;-99.256;2024-03-06T02:38:49;10.85;;;8.27;;
20954;SDS011;10636;19.390;-99.256;2024-03-06T02:41:17;10.70;;;8.13;;
20954;SDS011;10636;19.390;-99.256;2024-03-06T02:43:46;16.00;;;8.77;;
20954;SDS011;10636;19.390;-99.256;2024-03-06T02:46:14;12.57;;;9.52;;
20954;SDS011;10636;19.390;-99.256;2024-03-06T02:48:43;14.65;;;10.73;;
20954;SDS011;10636;19.390;-99.256;2024-03-06T02:51:11;16.17;;;11.43;;
20954;SDS011;10636;19.390;-99.256;2024-03-06T02:53:46;16.77;;;14.73;;
20954;SDS011;10636;19.390;-99.256;2024-03-06T02:56:18;16.95;;;13.63;;
20954;SDS011;10636;19.390;-99.256;2024-03-06T02:58:47;15.20;;;12.38;;
20954;SDS011;10636;19.390;-99.256;2024-03-06T03:01:15;14.63;;;12.07;;
20954;SDS011;10636;19.390;-99.256;2024-03-06T03:03:44;15.45;;;12.65;;
20954;SDS011;10636;19.390;-99.256;2024-03-06T03:06:13;15.80;;;11.27;;
20954;SDS011;10636;19.390;-99.256;2024-03-06T03:08:42;12.85;;;10.60;;
20954;SDS011;10636;19.390;-99.256;2024-03-06T03:11:12;12.07;;;10.52;;
20954;SDS011;10636;19.390;-99.256;2024-03-06T03:13:41;11.82;;;10.55;;
20954;SDS011;10636;19.390;-99.256;2024-03-06T03:16:15;12.15;;;10.73;;
20954;SDS011;10636;19.390;-99.256;2024-03-06T03:18:45;13.88;;;10.23;;
20954;SDS011;10636;19.390;-99.256;2024-03-06T03:21:15;15.40;;;10.75;;
20954;SDS011;10636;19.390;-99.256;2024-03-06T03:23:43;12.35;;;9.75;;
20954;SDS011;10636;19.390;-99.256;2024-03-06T03:26:13;15.05;;;11.13;;
20954;SDS011;10636;19.390;-99.256;2024-03-06T03:28:42;12.10;;;10.90;;
20954;SDS011;10636;19.390;-99.256;2024-03-06T03:31:10;12.23;;;10.88;;
20954;SDS011;10636;19.390;-99.256;2024-03-06T03:33:39;13.77;;;10.73;;
20954;SDS011;10636;19.390;-99.256;2024-03-06T03:36:08;12.63;;;9.73;;
20954;SDS011;10636;19.390;-99.256;2024-03-06T03:38:39;10.57;;;9.57;;
20954;SDS011;10636;19.390;-99.256;2024-03-06T03:41:10;10.73;;;9.45;;
20954;SDS011;10636;19.390;-99.256;2024-03-06T03:43:41;10.27;;;8.98;;
20954;SDS011;10636;19.390;-99.256;2024-03-06T03:46:09;11.20;;;10.02;;
20954;SDS011;10636;19.390;-99.256;2024-03-06T03:48:39;12.00;;;9.73;;
20954;SDS011;10636;19.390;-99.256;2024-03-06T03:51:07;14.48;;;9.15;;
20954;SDS011;10636;19.390;-99.256;2024-03-06T03:53:36;13.25;;;9.98;;
20954;SDS011;10636;19.390;-99.256;2024-03-06T03:56:07;10.95;;;9.30;;
20954;SDS011;10636;19.390;-99.256;2024-03-06T03:58:36;11.13;;;9.88;;
20954;SDS011;10636;19.390;-99.256;2024-03-06T04:01:25;14.07;;;10.02;;
20954;SDS011;10636;19.390;-99.256;2024-03-06T04:04:00;13.18;;;10.70;;
20954;SDS011;10636;19.390;-99.256;2024-03-06T04:06:29;13.70;;;10.30;;
20954;SDS011;10636;19.390;-99.256;2024-03-06T04:08:57;13.05;;;10.60;;
20954;SDS011;10636;19.390;-99.256;2024-03-06T04:11:26;16.40;;;11.05;;
20954;SDS011;10636;19.390;-99.256;2024-03-06T04:13:55;15.32;;;11.15;;
20954;SDS011;10636;19.390;-99.256;2024-03-06T04:16:27;15.48;;;10.48;;
20954;SDS011;10636;19.390;-99.256;2024-03-06T04:18:55;14.02;;;10.95;;
20954;SDS011;10636;19.390;-99.256;2024-03-06T04:21:24;15.02;;;10.73;;
20954;SDS011;10636;19.390;-99.256;2024-03-06T04:23:52;11.80;;;10.60;;
20954;SDS011;10636;19.390;-99.256;2024-03-06T04:26:21;15.88;;;10.45;;
20954;SDS011;10636;19.390;-99.256;2024-03-06T04:28:49;13.82;;;10.80;;
20954;SDS011;10636;19.390;-99.256;2024-03-06T04:31:19;14.18;;;10.75;;
20954;SDS011;10636;19.390;-99.256;2024-03-06T04:33:52;14.10;;;10.48;;
20954;SDS011;10636;19.390;-99.256;2024-03-06T04:36:21;13.90;;;10.77;;
20954;SDS011;10636;19.390;-99.256;2024-03-06T04:38:49;13.88;;;11.25;;
20954;SDS011;10636;19.390;-99.256;2024-03-06T04:41:20;13.63;;;11.35;;
20954;SDS011;10636;19.390;-99.256;2024-03-06T04:43:49;15.00;;;11.52;;
20954;SDS011;10636;19.390;-99.256;2024-03-06T04:46:18;13.35;;;11.07;;
20954;SDS011;10636;19.390;-99.256;2024-03-06T04:48:49;15.20;;;10.57;;
20954;SDS011;10636;19.390;-99.256;2024-03-06T04:51:20;14.55;;;10.70;;
20954;SDS011;10636;19.390;-99.256;2024-03-06T04:53:52;14.88;;;10.85;;
20954;SDS011;10636;19.390;-99.256;2024-03-06T04:56:20;13.95;;;10.30;;
20954;SDS011;10636;19.390;-99.256;2024-03-06T04:58:49;12.55;;;10.88;;
20954;SDS011;10636;19.390;-99.256;2024-03-06T05:01:20;12.95;;;9.65;;
20954;SDS011;10636;19.390;-99.256;2024-03-06T05:03:49;12.25;;;10.15;;
20954;SDS011;10636;19.390;-99.256;2024-03-06T05:06:19;10.55;;;9.38;;
20954;SDS011;10636;19.390;-99.256;2024-03-06T05:08:48;14.00;;;10.10;;
20954;SDS011;10636;19.390;-99.256;2024-03-06T05:11:16;13.45;;;10.45;;
20954;SDS011;10636;19.390;-99.256;2024-03-06T05:13:45;12.20;;;9.63;;
20954;SDS011;10636;19.390;-99.256;2024-03-06T05:16:13;10.85;;;9.73;;
20954;SDS011;10636;19.390;-99.256;2024-03-06T05:18:42;10.38;;;9.38;;
20954;SDS011;10636;19.390;-99.256;2024-03-06T05:21:10;9.88;;;8.93;;
20954;SDS011;10636;19.390;-99.256;2024-03-06T05:23:41;10.88;;;8.63;;
20954;SDS011;10636;19.390;-99.256;2024-03-06T05:26:09;10.55;;;9.07;;
20954;SDS011;10636;19.390;-99.256;2024-03-06T05:28:37;11.48;;;8.98;;
20954;SDS011;10636;19.390;-99.256;2024-03-06T05:31:15;11.00;;;9.30;;
20954;SDS011;10636;19.390;-99.256;2024-03-06T05:33:45;10.52;;;9.18;;
20954;SDS011;10636;19.390;-99.256;2024-03-06T05:36:15;10.90;;;8.73;;
20954;SDS011;10636;19.390;-99.256;2024-03-06T05:38:46;11.55;;;9.38;;
20954;SDS011;10636;19.390;-99.256;2024-03-06T05:41:15;9.40;;;8.52;;
20954;SDS011;10636;19.390;-99.256;2024-03-06T05:43:44;9.80;;;8.80;;
20954;SDS011;10636;19.390;-99.256;2024-03-06T05:46:13;9.57;;;8.50;;
20954;SDS011;10636;19.390;-99.256;2024-03-06T05:48:41;9.73;;;8.73;;
20954;SDS011;10636;19.390;-99.256;2024-03-06T05:51:10;9.98;;;8.98;;
20954;SDS011;10636;19.390;-99.256;2024-03-06T05:53:39;9.65;;;8.68;;
20954;SDS011;10636;19.390;-99.256;2024-03-06T05:56:09;9.38;;;8.10;;
20954;SDS011;10636;19.390;-99.256;2024-03-06T05:58:40;9.52;;;8.05;;
20954;SDS011;10636;19.390;-99.256;2024-03-06T06:01:11;9.45;;;8.55;;
20954;SDS011;10636;19.390;-99.256;2024-03-06T06:03:41;9.35;;;7.97;;
20954;SDS011;10636;19.390;-99.256;2024-03-06T06:06:09;9.50;;;8.18;;
20954;SDS011;10636;19.390;-99.256;2024-03-06T06:08:38;8.88;;;8.07;;
20954;SDS011;10636;19.390;-99.256;2024-03-06T06:11:06;10.10;;;7.95;;
20954;SDS011;10636;19.390;-99.256;2024-03-06T06:13:36;9.43;;;8.45;;
20954;SDS011;10636;19.390;-99.256;2024-03-06T06:16:05;9.63;;;8.35;;
20954;SDS011;10636;19.390;-99.256;2024-03-06T06:18:34;9.82;;;8.45;;
20954;SDS011;10636;19.390;-99.256;2024-03-06T06:21:03;8.52;;;7.72;;
20954;SDS011;10636;19.390;-99.256;2024-03-06T06:23:33;8.93;;;8.10;;
20954;SDS011;10636;19.390;-99.256;2024-03-06T06:26:01;8.95;;;7.93;;
20954;SDS011;10636;19.390;-99.256;2024-03-06T06:28:34;8.48;;;7.57;;
20954;SDS011;10636;19.390;-99.256;2024-03-06T06:31:03;8.13;;;7.43;;
20954;SDS011;10636;19.390;-99.256;2024-03-06T06:33:31;8.63;;;7.72;;
20954;SDS011;10636;19.390;-99.256;2024-03-06T06:36:02;8.10;;;7.30;;
20954;SDS011;10636;19.390;-99.256;2024-03-06T06:38:31;8.63;;;7.82;;
20954;SDS011;10636;19.390;-99.256;2024-03-06T06:41:02;9.23;;;8.13;;
20954;SDS011;10636;19.390;-99.256;2024-03-06T06:43:32;8.40;;;7.60;;
20954;SDS011;10636;19.390;-99.256;2024-03-06T06:46:01;8.38;;;7.68;;
20954;SDS011;10636;19.390;-99.256;2024-03-06T06:48:31;8.27;;;7.47;;
20954;SDS011;10636;19.390;-99.256;2024-03-06T06:51:03;8.60;;;7.53;;
20954;SDS011;10636;19.390;-99.256;2024-03-06T06:53:31;8.38;;;7.35;;
20954;SDS011;10636;19.390;-99.256;2024-03-06T06:56:03;10.95;;;7.00;;
20954;SDS011;10636;19.390;-99.256;2024-03-06T06:58:33;8.30;;;7.50;;
20954;SDS011;10636;19.390;-99.256;2024-03-06T07:01:02;8.07;;;7.25;;
20954;SDS011;10636;19.390;-99.256;2024-03-06T07:03:31;8.85;;;7.88;;
20954;SDS011;10636;19.390;-99.256;2024-03-06T07:05:59;10.05;;;7.70;;
20954;SDS011;10636;19.390;-99.256;2024-03-06T07:08:28;8.07;;;7.07;;
20954;SDS011;10636;19.390;-99.256;2024-03-06T07:10:57;8.48;;;7.55;;
20954;SDS011;10636;19.390;-99.256;2024-03-06T07:13:25;7.72;;;7.03;;
20954;SDS011;10636;19.390;-99.256;2024-03-06T07:15:56;7.90;;;7.05;;
20954;SDS011;10636;19.390;-99.256;2024-03-06T07:18:24;9.90;;;7.53;;
20954;SDS011;10636;19.390;-99.256;2024-03-06T07:20:52;8.00;;;7.07;;
20954;SDS011;10636;19.390;-99.256;2024-03-06T07:23:21;8.25;;;7.45;;
20954;SDS011;10636;19.390;-99.256;2024-03-06T07:25:49;8.32;;;7.35;;
20954;SDS011;10636;19.390;-99.256;2024-03-06T07:28:18;7.70;;;6.90;;
20954;SDS011;10636;19.390;-99.256;2024-03-06T07:30:47;7.90;;;7.20;;
20954;SDS011;10636;19.390;-99.256;2024-03-06T07:33:17;7.57;;;6.80;;
20954;SDS011;10636;19.390;-99.256;2024-03-06T07:35:45;7.90;;;7.10;;
20954;SDS011;10636;19.390;-99.256;2024-03-06T07:38:14;7.45;;;6.82;;
20954;SDS011;10636;19.390;-99.256;2024-03-06T07:40:42;7.65;;;6.88;;
20954;SDS011;10636;19.390;-99.256;2024-03-06T07:43:11;7.30;;;6.60;;
20954;SDS011;10636;19.390;-99.256;2024-03-06T07:45:40;7.32;;;6.63;;
20954;SDS011;10636;19.390;-99.256;2024-03-06T07:48:08;7.22;;;6.53;;
20954;SDS011;10636;19.390;-99.256;2024-03-06T07:50:38;7.20;;;6.50;;
20954;SDS011;10636;19.390;-99.256;2024-03-06T07:53:07;7.15;;;6.45;;
20954;SDS011;10636;19.390;-99.256;2024-03-06T07:55:35;7.10;;;6.50;;
20954;SDS011;10636;19.390;-99.256;2024-03-06T07:58:04;6.88;;;6.28;;
20954;SDS011;10636;19.390;-99.256;2024-03-06T08:00:33;7.43;;;6.65;;
20954;SDS011;10636;19.390;-99.256;2024-03-06T08:03:02;7.18;;;5.95;;
20954;SDS011;10636;19.390;-99.256;2024-03-06T08:05:31;6.50;;;5.90;;
20954;SDS011;10636;19.390;-99.256;2024-03-06T08:08:01;7.07;;;6.38;;
20954;SDS011;10636;19.390;-99.256;2024-03-06T08:10:31;6.97;;;6.35;;
20954;SDS011;10636;19.390;-99.256;2024-03-06T08:12:59;6.50;;;5.90;;
20954;SDS011;10636;19.390;-99.256;2024-03-06T08:15:28;6.38;;;5.78;;
20954;SDS011;10636;19.390;-99.256;2024-03-06T08:17:57;6.78;;;6.00;;
20954;SDS011;10636;19.390;-99.256;2024-03-06T08:20:25;7.32;;;6.43;;
20954;SDS011;10636;19.390;-99.256;2024-03-06T08:22:57;6.50;;;5.90;;
20954;SDS011;10636;19.390;-99.256;2024-03-06T08:25:28;6.57;;;6.00;;
20954;SDS011;10636;19.390;-99.256;2024-03-06T08:27:58;6.70;;;6.10;;
20954;SDS011;10636;19.390;-99.256;2024-03-06T08:30:28;7.10;;;5.95;;
20954;SDS011;10636;19.390;-99.256;2024-03-06T08:32:57;7.03;;;6.00;;
20954;SDS011;10636;19.390;-99.256;2024-03-06T08:35:26;6.93;;;6.22;;
20954;SDS011;10636;19.390;-99.256;2024-03-06T08:37:55;8.15;;;6.28;;
20954;SDS011;10636;19.390;-99.256;2024-03-06T08:40:23;6.93;;;5.93;;
20954;SDS011;10636;19.390;-99.256;2024-03-06T08:42:54;6.57;;;5.97;;
20954;SDS011;10636;19.390;-99.256;2024-03-06T08:45:23;6.85;;;6.18;;
20954;SDS011;10636;19.390;-99.256;2024-03-06T08:47:51;8.63;;;6.53;;
20954;SDS011;10636;19.390;-99.256;2024-03-06T08:50:20;7.13;;;6.43;;
20954;SDS011;10636;19.390;-99.256;2024-03-06T08:52:48;8.18;;;5.75;;
20954;SDS011;10636;19.390;-99.256;2024-03-06T08:55:17;7.95;;;6.22;;
20954;SDS011;10636;19.390;-99.256;2024-03-06T08:57:45;9.02;;;6.30;;
20954;SDS011;10636;19.390;-99.256;2024-03-06T09:00:17;6.90;;;6.20;;
20954;SDS011;10636;19.390;-99.256;2024-03-06T09:02:46;6.78;;;6.05;;
20954;SDS011;10636;19.390;-99.256;2024-03-06T09:05:16;7.30;;;6.57;;
20954;SDS011;10636;19.390;-99.256;2024-03-06T09:07:46;6.72;;;6.05;;
20954;SDS011;10636;19.390;-99.256;2024-03-06T09:10:14;6.65;;;6.05;;
20954;SDS011;10636;19.390;-99.256;2024-03-06T09:12:44;7.32;;;5.93;;
20954;SDS011;10636;19.390;-99.256;2024-03-06T09:15:14;6.88;;;6.03;;
20954;SDS011;10636;19.390;-99.256;2024-03-06T09:17:45;7.00;;;6.03;;
20954;SDS011;10636;19.390;-99.256;2024-03-06T09:20:17;6.95;;;6.07;;
20954;SDS011;10636;19.390;-99.256;2024-03-06T09:22:45;6.30;;;5.70;;
20954;SDS011;10636;19.390;-99.256;2024-03-06T09:25:13;7.82;;;5.93;;
20954;SDS011;10636;19.390;-99.256;2024-03-06T09:27:42;6.82;;;5.50;;
20954;SDS011;10636;19.390;-99.256;2024-03-06T09:30:11;7.22;;;5.88;;
20954;SDS011;10636;19.390;-99.256;2024-03-06T09:32:41;6.05;;;5.50;;
20954;SDS011;10636;19.390;-99.256;2024-03-06T09:35:11;5.88;;;5.32;;
20954;SDS011;10636;19.390;-99.256;2024-03-06T09:37:44;6.22;;;5.63;;
20954;SDS011;10636;19.390;-99.256;2024-03-06T09:40:19;7.47;;;5.75;;
20954;SDS011;10636;19.390;-99.256;2024-03-06T09:42:49;7.35;;;5.57;;
20954;SDS011;10636;19.390;-99.256;2024-03-06T09:45:18;5.90;;;5.30;;
20954;SDS011;10636;19.390;-99.256;2024-03-06T09:47:47;6.00;;;5.47;;
20954;SDS011;10636;19.390;-99.256;2024-03-06T09:50:19;7.13;;;5.20;;
20954;SDS011;10636;19.390;-99.256;2024-03-06T09:52:52;7.50;;;5.63;;
20954;SDS011;10636;19.390;-99.256;2024-03-06T09:55:22;6.20;;;5.60;;
20954;SDS011;10636;19.390;-99.256;2024-03-06T09:57:53;6.88;;;5.43;;
20954;SDS011;10636;19.390;-99.256;2024-03-06T10:00:21;6.07;;;5.38;;
20954;SDS011;10636;19.390;-99.256;2024-03-06T10:02:51;5.97;;;5.38;;
20954;SDS011;10636;19.390;-99.256;2024-03-06T10:05:27;5.95;;;5.20;;
20954;SDS011;10636;19.390;-99.256;2024-03-06T10:07:57;6.63;;;5.25;;
20954;SDS011;10636;19.390;-99.256;2024-03-06T10:10:26;7.15;;;5.15;;
20954;SDS011;10636;19.390;-99.256;2024-03-06T10:12:55;5.93;;;5.20;;
20954;SDS011;10636;19.390;-99.256;2024-03-06T10:15:25;5.93;;;5.15;;
20954;SDS011;10636;19.390;-99.256;2024-03-06T10:20:45;6.55;;;4.90;;
20954;SDS011;10636;19.390;-99.256;2024-03-06T10:23:14;5.65;;;4.95;;
20954;SDS011;10636;19.390;-99.256;2024-03-06T10:25:43;5.97;;;4.63;;
20954;SDS011;10636;19.390;-99.256;2024-03-06T10:28:12;5.50;;;5.00;;
20954;SDS011;10636;19.390;-99.256;2024-03-06T10:30:41;5.57;;;5.07;;
20954;SDS011;10636;19.390;-99.256;2024-03-06T10:33:10;5.50;;;4.75;;
20954;SDS011;10636;19.390;-99.256;2024-03-06T10:35:40;5.13;;;4.60;;
20954;SDS011;10636;19.390;-99.256;2024-03-06T10:38:11;5.65;;;4.82;;
20954;SDS011;10636;19.390;-99.256;2024-03-06T10:40:40;5.47;;;4.80;;
20954;SDS011;10636;19.390;-99.256;2024-03-06T10:43:12;6.20;;;4.82;;
20954;SDS011;10636;19.390;-99.256;2024-03-06T10:45:43;5.50;;;4.63;;
20954;SDS011;10636;19.390;-99.256;2024-03-06T10:48:15;5.28;;;4.78;;
20954;SDS011;10636;19.390;-99.256;2024-03-06T10:50:44;5.57;;;5.05;;
20954;SDS011;10636;19.390;-99.256;2024-03-06T10:53:16;5.75;;;4.40;;
20954;SDS011;10636;19.390;-99.256;2024-03-06T10:55:45;5.30;;;4.80;;
20954;SDS011;10636;19.390;-99.256;2024-03-06T10:58:13;5.30;;;4.80;;
20954;SDS011;10636;19.390;-99.256;2024-03-06T11:00:45;4.75;;;4.35;;
20954;SDS011;10636;19.390;-99.256;2024-03-06T11:03:14;4.90;;;4.50;;
20954;SDS011;10636;19.390;-99.256;2024-03-06T11:05:43;4.82;;;4.43;;
20954;SDS011;10636;19.390;-99.256;2024-03-06T11:08:17;5.43;;;4.93;;
20954;SDS011;10636;19.390;-99.256;2024-03-06T11:10:47;5.22;;;4.72;;
20954;SDS011;10636;19.390;-99.256;2024-03-06T11:13:21;5.25;;;4.70;;
20954;SDS011;10636;19.390;-99.256;2024-03-06T11:15:52;5.45;;;4.95;;
20954;SDS011;10636;19.390;-99.256;2024-03-06T11:18:43;5.10;;;4.60;;
20954;SDS011;10636;19.390;-99.256;2024-03-06T11:21:31;5.13;;;4.63;;
20954;SDS011;10636;19.390;-99.256;2024-03-06T11:24:14;5.50;;;4.78;;
20954;SDS011;10636;19.390;-99.256;2024-03-06T11:26:48;5.70;;;4.80;;
20954;SDS011;10636;19.390;-99.256;2024-03-06T11:29:18;4.93;;;4.53;;
20954;SDS011;10636;19.390;-99.256;2024-03-06T11:32:03;5.38;;;4.80;;
20954;SDS011;10636;19.390;-99.256;2024-03-06T11:34:36;6.22;;;4.80;;
20954;SDS011;10636;19.390;-99.256;2024-03-06T11:37:05;5.00;;;4.60;;
20954;SDS011;10636;19.390;-99.256;2024-03-06T11:39:36;4.93;;;4.38;;
20954;SDS011;10636;19.390;-99.256;2024-03-06T11:42:06;5.13;;;4.63;;
20954;SDS011;10636;19.390;-99.256;2024-03-06T11:44:35;5.00;;;4.45;;
20954;SDS011;10636;19.390;-99.256;2024-03-06T11:47:04;5.35;;;4.72;;
20954;SDS011;10636;19.390;-99.256;2024-03-06T11:49:34;6.05;;;4.78;;
20954;SDS011;10636;19.390;-99.256;2024-03-06T11:52:04;6.05;;;4.68;;
20954;SDS011;10636;19.390;-99.256;2024-03-06T11:54:33;5.22;;;4.78;;
20954;SDS011;10636;19.390;-99.256;2024-03-06T11:57:04;11.05;;;8.57;;
20954;SDS011;10636;19.390;-99.256;2024-03-06T11:59:34;12.98;;;11.60;;
20954;SDS011;10636;19.390;-99.256;2024-03-06T12:02:04;14.63;;;13.23;;
20954;SDS011;10636;19.390;-99.256;2024-03-06T12:04:35;17.23;;;15.73;;
20954;SDS011;10636;19.390;-99.256;2024-03-06T12:07:04;15.23;;;13.63;;
20954;SDS011;10636;19.390;-99.256;2024-03-06T12:09:34;15.82;;;12.45;;
20954;SDS011;10636;19.390;-99.256;2024-03-06T12:12:05;12.80;;;11.52;;
20954;SDS011;10636;19.390;-99.256;2024-03-06T12:14:35;12.82;;;10.90;;
20954;SDS011;10636;19.390;-99.256;2024-03-06T12:17:04;12.48;;;11.35;;
20954;SDS011;10636;19.390;-99.256;2024-03-06T12:19:34;12.85;;;10.73;;
20954;SDS011;10636;19.390;-99.256;2024-03-06T12:22:05;11.52;;;9.07;;
20954;SDS011;10636;19.390;-99.256;2024-03-06T12:24:34;10.65;;;9.55;;
20954;SDS011;10636;19.390;-99.256;2024-03-06T12:27:05;10.30;;;8.80;;
20954;SDS011;10636;19.390;-99.256;2024-03-06T12:29:35;11.77;;;8.80;;
20954;SDS011;10636;19.390;-99.256;2024-03-06T12:32:04;8.82;;;7.60;;
20954;SDS011;10636;19.390;-99.256;2024-03-06T12:34:43;11.30;;;7.35;;
20954;SDS011;10636;19.390;-99.256;2024-03-06T12:37:11;7.82;;;6.90;;
20954;SDS011;10636;19.390;-99.256;2024-03-06T12:39:42;11.93;;;7.40;;
20954;SDS011;10636;19.390;-99.256;2024-03-06T12:42:12;8.98;;;6.85;;
20954;SDS011;10636;19.390;-99.256;2024-03-06T12:44:40;9.02;;;6.65;;
20954;SDS011;10636;19.390;-99.256;2024-03-06T12:47:09;11.32;;;7.32;;
20954;SDS011;10636;19.390;-99.256;2024-03-06T12:49:37;11.35;;;7.00;;
20954;SDS011;10636;19.390;-99.256;2024-03-06T12:52:06;9.63;;;6.80;;
20954;SDS011;10636;19.390;-99.256;2024-03-06T12:54:34;10.52;;;6.63;;
20954;SDS011;10636;19.390;-99.256;2024-03-06T12:57:05;8.75;;;6.57;;
20954;SDS011;10636;19.390;-99.256;2024-03-06T12:59:35;8.20;;;6.93;;
20954;SDS011;10636;19.390;-99.256;2024-03-06T13:02:04;10.27;;;6.70;;
20954;SDS011;10636;19.390;-99.256;2024-03-06T13:04:32;10.68;;;7.10;;
20954;SDS011;10636;19.390;-99.256;2024-03-06T13:07:01;9.90;;;6.75;;
20954;SDS011;10636;19.390;-99.256;2024-03-06T13:09:32;8.93;;;6.63;;
20954;SDS011;10636;19.390;-99.256;2024-03-06T13:12:01;9.68;;;6.70;;
20954;SDS011;10636;19.390;-99.256;2024-03-06T13:14:31;8.85;;;6.95;;
20954;SDS011;10636;19.390;-99.256;2024-03-06T13:17:00;10.57;;;7.07;;
20954;SDS011;10636;19.390;-99.256;2024-03-06T13:19:28;10.82;;;7.18;;
20954;SDS011;10636;19.390;-99.256;2024-03-06T13:21:57;9.40;;;7.53;;
20954;SDS011;10636;19.390;-99.256;2024-03-06T13:24:25;10.60;;;7.10;;
20954;SDS011;10636;19.390;-99.256;2024-03-06T13:26:56;11.32;;;7.25;;
20954;SDS011;10636;19.390;-99.256;2024-03-06T13:29:25;10.70;;;7.13;;
20954;SDS011;10636;19.390;-99.256;2024-03-06T13:31:55;10.00;;;7.38;;
20954;SDS011;10636;19.390;-99.256;2024-03-06T13:34:24;11.05;;;7.40;;
20954;SDS011;10636;19.390;-99.256;2024-03-06T13:36:52;10.70;;;7.13;;
20954;SDS011;10636;19.390;-99.256;2024-03-06T13:39:21;12.30;;;7.90;;
20954;SDS011;10636;19.390;-99.256;2024-03-06T13:41:49;10.30;;;6.97;;
20954;SDS011;10636;19.390;-99.256;2024-03-06T13:44:18;10.85;;;7.45;;
20954;SDS011;10636;19.390;-99.256;2024-03-06T13:46:46;10.70;;;7.30;;
20954;SDS011;10636;19.390;-99.256;2024-03-06T13:49:33;10.68;;;7.82;;
20954;SDS011;10636;19.390;-99.256;2024-03-06T13:52:05;13.35;;;8.82;;
20954;SDS011;10636;19.390;-99.256;2024-03-06T13:54:37;15.48;;;9.70;;
20954;SDS011;10636;19.390;-99.256;2024-03-06T13:57:06;13.60;;;9.95;;
20954;SDS011;10636;19.390;-99.256;2024-03-06T13:59:35;15.30;;;10.52;;
20954;SDS011;10636;19.390;-99.256;2024-03-06T14:02:05;15.05;;;10.68;;
20954;SDS011;10636;19.390;-99.256;2024-03-06T14:04:36;15.45;;;10.90;;
20954;SDS011;10636;19.390;-99.256;2024-03-06T14:07:04;14.45;;;10.77;;
20954;SDS011;10636;19.390;-99.256;2024-03-06T14:09:33;15.88;;;10.50;;
20954;SDS011;10636;19.390;-99.256;2024-03-06T14:12:02;15.65;;;10.88;;
20954;SDS011;10636;19.390;-99.256;2024-03-06T14:14:30;15.48;;;10.77;;
20954;SDS011;10636;19.390;-99.256;2024-03-06T14:16:59;14.50;;;11.95;;
20954;SDS011;10636;19.390;-99.256;2024-03-06T14:19:27;17.65;;;12.52;;
20954;SDS011;10636;19.390;-99.256;2024-03-06T14:21:57;19.00;;;12.70;;
20954;SDS011;10636;19.390;-99.256;2024-03-06T14:24:26;16.10;;;11.68;;
20954;SDS011;10636;19.390;-99.256;2024-03-06T14:26:55;16.08;;;12.15;;
20954;SDS011;10636;19.390;-99.256;2024-03-06T14:29:24;16.70;;;12.57;;
20954;SDS011;10636;19.390;-99.256;2024-03-06T14:31:54;18.13;;;14.27;;